sensor_id;sensor_type;location;lat;lon;timestamp;P1;P4;P2;P0;N10;N4;N25;N1;N05;TS
67098;SPS30;54288;53.046;5.668;2022-12-18T00:00:47;56.12;54.73;47.79;37.08;297.54;297.25;295.39;286.01;240.14;0.76
67098;SPS30;54288;53.046;5.668;2022-12-18T00:03:13;59.82;58.16;49.83;37.39;300.31;299.97;297.76;286.64;238.50;0.79
67098;SPS30;54288;53.046;5.668;2022-12-18T00:05:49;59.42;57.82;49.83;37.78;303.33;303.00;300.87;290.16;242.11;0.77
67098;SPS30;54288;53.046;5.668;2022-12-18T00:08:16;57.75;56.31;49.10;38.01;305.03;304.73;302.80;293.06;245.91;0.76
67098;SPS30;54288;53.046;5.668;2022-12-18T00:10:44;58.55;57.19;50.36;39.65;318.02;317.73;315.89;306.60;258.40;0.75
67098;SPS30;54288;53.046;5.668;2022-12-18T00:13:12;59.58;58.07;50.51;38.92;312.38;312.06;310.04;299.84;251.30;0.77
67098;SPS30;54288;53.046;5.668;2022-12-18T00:15:38;56.76;55.30;48.00;36.86;295.87;295.57;293.62;283.79;237.62;0.76
67098;SPS30;54288;53.046;5.668;2022-12-18T00:18:05;53.43;52.20;46.05;36.36;291.61;291.34;289.68;281.30;237.25;0.74
67098;SPS30;54288;53.046;5.668;2022-12-18T00:20:32;56.55;55.06;47.65;36.39;292.10;291.80;289.82;279.85;233.97;0.77
67098;SPS30;54288;53.046;5.668;2022-12-18T00:23:01;55.16;53.78;46.86;36.22;290.69;290.40;288.54;279.20;234.19;0.75
67098;SPS30;54288;53.046;5.668;2022-12-18T00:25:27;59.05;57.45;49.49;37.50;301.08;300.75;298.64;287.96;240.24;0.79
67098;SPS30;54288;53.046;5.668;2022-12-18T00:27:53;59.81;58.15;49.87;37.48;301.03;300.70;298.50;287.43;239.26;0.78
67098;SPS30;54288;53.046;5.668;2022-12-18T00:30:18;56.96;55.55;48.54;37.70;302.51;302.21;300.33;290.84;244.26;0.76
67098;SPS30;54288;53.046;5.668;2022-12-18T00:32:44;54.83;53.53;47.06;36.94;296.31;296.04;294.29;285.50;240.43;0.76
67098;SPS30;54288;53.046;5.668;2022-12-18T00:35:10;52.36;51.14;45.03;35.45;284.31;284.05;282.41;274.09;230.99;0.76
67098;SPS30;54288;53.046;5.668;2022-12-18T00:37:35;54.13;52.77;45.96;35.50;284.90;284.62;282.79;273.60;229.44;0.78
67098;SPS30;54288;53.046;5.668;2022-12-18T00:40:02;50.69;49.58;44.02;35.14;281.78;281.54;280.03;272.42;230.40;0.73
67098;SPS30;54288;53.046;5.668;2022-12-18T00:42:28;53.16;51.90;45.58;35.73;286.59;286.32;284.62;276.04;232.37;0.75
67098;SPS30;54288;53.046;5.668;2022-12-18T00:45:12;52.86;51.64;45.56;35.97;288.48;288.21;286.57;278.28;234.70;0.75
67098;SPS30;54288;53.046;5.668;2022-12-18T00:47:38;54.18;52.85;46.20;35.91;288.15;287.87;286.08;277.08;232.75;0.76
67098;SPS30;54288;53.046;5.668;2022-12-18T00:50:04;51.71;50.53;44.61;35.26;282.81;282.55;280.95;272.87;230.22;0.75
67098;SPS30;54288;53.046;5.668;2022-12-18T00:52:30;55.73;54.30;47.15;36.24;290.86;290.56;288.65;279.02;233.68;0.78
67098;SPS30;54288;53.046;5.668;2022-12-18T00:54:56;52.77;51.49;45.08;35.15;282.00;281.73;280.01;271.33;228.10;0.76
67098;SPS30;54288;53.046;5.668;2022-12-18T00:57:22;52.17;50.97;44.95;35.48;284.57;284.31;282.69;274.49;231.48;0.75
67098;SPS30;54288;53.046;5.668;2022-12-18T00:59:47;52.97;51.57;44.57;33.98;272.78;272.49;270.62;261.23;218.29;0.78
67098;SPS30;54288;53.046;5.668;2022-12-18T01:02:13;53.39;52.02;45.17;34.71;278.59;278.31;276.47;267.24;223.80;0.77
67098;SPS30;54288;53.046;5.668;2022-12-18T01:04:39;52.30;50.96;44.26;34.04;273.16;272.88;271.09;262.07;219.51;0.77
67098;SPS30;54288;53.046;5.668;2022-12-18T01:07:04;50.97;49.67;43.15;33.19;266.37;266.10;264.36;255.57;214.08;0.77
67098;SPS30;54288;53.046;5.668;2022-12-18T01:09:30;50.22;48.97;42.73;33.10;265.64;265.38;263.70;255.26;214.23;0.75
67098;SPS30;54288;53.046;5.668;2022-12-18T01:11:55;50.14;48.87;42.52;32.80;263.21;262.94;261.25;252.69;211.82;0.75
67098;SPS30;54288;53.046;5.668;2022-12-18T01:14:21;49.82;48.62;42.63;33.30;267.17;266.92;265.31;257.17;216.31;0.75
67098;SPS30;54288;53.046;5.668;2022-12-18T01:16:47;52.09;50.72;43.85;33.44;268.47;268.19;266.36;257.13;214.90;0.77
67098;SPS30;54288;53.046;5.668;2022-12-18T01:19:13;52.07;50.71;43.95;33.66;270.16;269.88;268.07;258.97;216.68;0.77
67098;SPS30;54288;53.046;5.668;2022-12-18T01:21:39;52.04;50.73;44.16;34.08;273.49;273.21;271.45;262.59;220.15;0.76
67098;SPS30;54288;53.046;5.668;2022-12-18T01:24:05;49.56;48.38;42.51;33.34;267.47;267.22;265.64;257.66;216.94;0.74
67098;SPS30;54288;53.046;5.668;2022-12-18T01:26:32;53.60;52.12;44.74;33.69;270.52;270.22;268.26;258.39;215.19;0.78
67098;SPS30;54288;53.046;5.668;2022-12-18T01:28:58;53.77;52.26;44.70;33.44;268.57;268.26;266.25;256.16;212.95;0.79
67098;SPS30;54288;53.046;5.668;2022-12-18T01:31:26;50.08;48.77;42.22;32.27;259.06;258.79;257.04;248.24;207.59;0.78
67098;SPS30;54288;53.046;5.668;2022-12-18T01:33:54;51.22;49.92;43.40;33.42;268.21;267.94;266.20;257.41;215.69;0.77
67098;SPS30;54288;53.046;5.668;2022-12-18T01:36:25;50.25;49.03;42.92;33.45;268.34;268.08;266.44;258.16;217.00;0.76
67098;SPS30;54288;53.046;5.668;2022-12-18T01:38:54;50.87;49.54;42.90;32.80;263.26;262.98;261.21;252.27;210.98;0.79
67098;SPS30;54288;53.046;5.668;2022-12-18T01:41:24;52.43;50.94;43.47;32.38;260.07;259.76;257.78;247.83;205.77;0.78
67098;SPS30;54288;53.046;5.668;2022-12-18T01:43:53;51.21;49.81;42.80;32.29;259.30;259.02;257.16;247.78;206.47;0.78
67098;SPS30;54288;53.046;5.668;2022-12-18T01:46:26;51.88;50.44;43.21;32.42;260.39;260.10;258.18;248.53;206.78;0.78
67098;SPS30;54288;53.046;5.668;2022-12-18T01:48:56;47.74;46.54;40.54;31.33;251.45;251.20;249.60;241.50;202.55;0.76
67098;SPS30;54288;53.046;5.668;2022-12-18T01:51:25;48.99;47.72;41.37;31.69;254.38;254.12;252.42;243.87;204.07;0.77
67098;SPS30;54288;53.046;5.668;2022-12-18T01:53:55;46.86;45.74;40.15;31.43;252.12;251.89;250.38;242.78;204.31;0.75
67098;SPS30;54288;53.046;5.668;2022-12-18T01:56:21;48.41;47.12;40.65;30.88;247.89;247.62;245.90;237.21;198.03;0.77
67098;SPS30;54288;53.046;5.668;2022-12-18T01:58:52;47.42;46.21;40.11;30.81;247.30;247.05;245.42;237.21;198.63;0.76
67098;SPS30;54288;53.046;5.668;2022-12-18T02:01:24;48.33;47.04;40.59;30.85;247.70;247.44;245.72;237.07;197.95;0.78
67098;SPS30;54288;53.046;5.668;2022-12-18T02:03:50;49.36;48.08;41.67;31.92;256.20;255.93;254.22;245.60;205.49;0.77
67098;SPS30;54288;53.046;5.668;2022-12-18T02:06:21;51.54;50.10;42.92;32.20;258.59;258.30;256.40;246.80;205.34;0.78
67098;SPS30;54288;53.046;5.668;2022-12-18T02:09:08;51.38;50.00;43.09;32.68;262.39;262.11;260.27;251.01;209.46;0.78
67098;SPS30;54288;53.046;5.668;2022-12-18T02:14:41;52.98;51.40;43.50;31.91;256.42;256.10;254.02;243.54;201.33;0.81
67098;SPS30;54288;53.046;5.668;2022-12-18T02:17:21;49.25;47.88;41.00;30.74;246.87;246.59;244.77;235.58;195.96;0.77
67098;SPS30;54288;53.046;5.668;2022-12-18T02:22:49;50.25;48.84;41.79;31.28;251.23;250.94;249.07;239.66;199.27;0.78
67098;SPS30;54288;53.046;5.668;2022-12-18T02:28:25;48.41;47.12;40.66;30.91;248.13;247.86;246.14;237.48;198.28;0.78
67098;SPS30;54288;53.046;5.668;2022-12-18T02:31:02;50.07;48.69;41.79;31.46;252.65;252.37;250.53;241.31;200.95;0.78
67098;SPS30;54288;53.046;5.668;2022-12-18T02:33:33;47.24;46.03;39.97;30.71;246.47;246.22;244.60;236.43;197.99;0.77
67098;SPS30;54288;53.046;5.668;2022-12-18T02:36:01;50.74;49.27;41.90;31.02;249.21;248.91;246.97;237.17;196.58;0.79
67098;SPS30;54288;53.046;5.668;2022-12-18T02:38:31;50.91;49.42;41.94;30.93;248.50;248.19;246.22;236.28;195.63;0.78
67098;SPS30;54288;53.046;5.668;2022-12-18T02:41:05;49.05;47.71;41.01;30.96;248.61;248.34;246.56;237.60;198.02;0.78
67098;SPS30;54288;53.046;5.668;2022-12-18T02:43:32;47.59;46.32;39.95;30.34;243.62;243.36;241.66;233.13;194.62;0.78
67098;SPS30;54288;53.046;5.668;2022-12-18T02:45:59;53.26;51.64;43.55;31.72;254.94;254.62;252.48;241.76;199.45;0.81
67098;SPS30;54288;53.046;5.668;2022-12-18T02:48:33;53.01;51.35;43.08;31.08;249.91;249.59;247.41;236.48;194.55;0.81
67098;SPS30;54288;53.046;5.668;2022-12-18T02:51:07;53.01;51.35;43.06;31.02;249.45;249.12;246.94;235.98;194.07;0.80
67098;SPS30;54288;53.046;5.668;2022-12-18T02:53:58;53.34;51.65;43.23;31.04;249.59;249.26;247.04;235.92;193.81;0.82
67098;SPS30;54288;53.046;5.668;2022-12-18T02:56:51;52.76;51.13;42.97;31.10;249.99;249.67;247.52;236.72;194.93;0.82
67098;SPS30;54288;53.046;5.668;2022-12-18T02:59:23;52.13;50.54;42.59;30.99;249.13;248.81;246.72;236.19;194.80;0.80
67098;SPS30;54288;53.046;5.668;2022-12-18T03:02:17;52.95;51.35;43.35;31.65;254.38;254.06;251.95;241.35;199.25;0.80
67098;SPS30;54288;53.046;5.668;2022-12-18T03:07:30;56.20;54.37;45.25;32.14;258.50;258.14;255.75;243.73;199.57;0.81
67098;SPS30;54288;53.046;5.668;2022-12-18T03:10:14;55.96;54.11;44.83;31.54;253.79;253.43;251.00;238.79;194.98;0.83
67098;SPS30;54288;53.046;5.668;2022-12-18T03:13:08;52.76;51.18;43.26;31.66;254.41;254.10;252.01;241.50;199.51;0.78
67098;SPS30;54288;53.046;5.668;2022-12-18T03:15:37;53.72;52.03;43.62;31.43;252.67;252.34;250.12;239.01;196.55;0.80
67098;SPS30;54288;53.046;5.668;2022-12-18T03:18:30;56.67;54.84;45.69;32.51;261.50;261.14;258.74;246.68;202.11;0.82
67098;SPS30;54288;53.046;5.668;2022-12-18T03:21:03;53.33;51.60;42.95;30.51;245.40;245.06;242.79;231.39;189.48;0.81
67098;SPS30;54288;53.046;5.668;2022-12-18T03:23:36;51.60;50.00;41.96;30.30;243.61;243.29;241.18;230.56;189.73;0.79
67098;SPS30;54288;53.046;5.668;2022-12-18T03:26:10;53.27;51.63;43.42;31.46;252.91;252.58;250.42;239.55;197.33;0.80
67098;SPS30;54288;53.046;5.668;2022-12-18T03:28:51;53.91;52.15;43.39;30.78;247.62;247.28;244.98;233.43;191.08;0.82
67098;SPS30;54288;53.046;5.668;2022-12-18T03:31:21;54.73;52.95;44.08;31.32;251.95;251.60;249.28;237.59;194.57;0.81
67098;SPS30;54288;53.046;5.668;2022-12-18T03:33:59;53.39;51.70;43.21;30.95;248.88;248.55;246.32;235.12;193.01;0.81
67098;SPS30;54288;53.046;5.668;2022-12-18T03:36:39;55.76;53.89;44.56;31.24;251.37;251.00;248.56;236.30;192.71;0.82
67098;SPS30;54288;53.046;5.668;2022-12-18T03:39:06;50.29;48.85;41.69;31.05;249.41;249.12;247.22;237.66;197.33;0.77
67098;SPS30;54288;53.046;5.668;2022-12-18T03:44:28;53.33;51.66;43.30;31.19;250.79;250.45;248.26;237.22;195.06;0.80
67098;SPS30;54288;53.046;5.668;2022-12-18T03:50:08;53.53;51.87;43.59;31.54;253.58;253.25;251.07;240.12;197.72;0.80
67098;SPS30;54288;53.046;5.668;2022-12-18T03:52:51;51.01;49.51;42.02;30.99;249.01;248.71;246.73;236.78;196.04;0.80
67098;SPS30;54288;53.046;5.668;2022-12-18T03:55:33;52.01;50.51;42.98;31.85;255.91;255.61;253.62;243.60;201.98;0.79
67098;SPS30;54288;53.046;5.668;2022-12-18T03:58:03;52.67;51.11;43.31;31.84;255.84;255.53;253.47;243.11;201.11;0.79
67098;SPS30;54288;53.046;5.668;2022-12-18T04:00:47;54.32;52.69;44.54;32.59;261.89;261.56;259.41;248.59;205.36;0.80
67098;SPS30;54288;53.046;5.668;2022-12-18T04:03:18;51.30;49.83;42.43;31.48;252.93;252.63;250.67;240.83;199.75;0.78
67098;SPS30;54288;53.046;5.668;2022-12-18T04:05:48;52.82;51.27;43.54;32.14;258.25;257.94;255.89;245.61;203.42;0.78
67098;SPS30;54288;53.046;5.668;2022-12-18T04:08:20;49.30;47.95;41.24;31.15;250.10;249.82;248.03;239.04;199.25;0.77
67098;SPS30;54288;53.046;5.668;2022-12-18T04:10:59;52.47;50.92;43.15;31.73;254.97;254.66;252.61;242.29;200.44;0.78
67098;SPS30;54288;53.046;5.668;2022-12-18T04:13:28;51.93;50.39;42.72;31.44;252.61;252.30;250.28;240.08;198.66;0.79
67098;SPS30;54288;53.046;5.668;2022-12-18T04:16:00;50.60;49.23;42.43;32.17;258.28;258.00;256.19;247.06;206.15;0.77
67098;SPS30;54288;53.046;5.668;2022-12-18T04:18:27;49.98;48.64;41.95;31.86;255.76;255.49;253.71;244.74;204.30;0.77
67098;SPS30;54288;53.046;5.668;2022-12-18T04:20:53;49.65;48.34;41.78;31.85;255.72;255.44;253.70;244.89;204.65;0.77
67098;SPS30;54288;53.046;5.668;2022-12-18T04:23:19;50.34;49.03;42.45;32.46;260.53;260.25;258.50;249.66;208.79;0.77
67098;SPS30;54288;53.046;5.668;2022-12-18T04:25:46;50.58;49.19;42.28;31.90;256.17;255.89;254.05;244.80;203.99;0.77
67098;SPS30;54288;53.046;5.668;2022-12-18T04:28:17;50.69;49.37;42.76;32.72;262.67;262.40;260.64;251.76;210.60;0.77
67098;SPS30;54288;53.046;5.668;2022-12-18T04:30:43;52.29;50.80;43.39;32.37;259.99;259.69;257.73;247.84;205.87;0.79
67098;SPS30;54288;53.046;5.668;2022-12-18T04:33:12;51.71;50.24;42.84;31.88;256.07;255.77;253.81;243.96;202.50;0.78
67098;SPS30;54288;53.046;5.668;2022-12-18T04:35:42;50.19;48.95;42.79;33.26;266.86;266.60;264.95;256.61;215.55;0.75
67098;SPS30;54288;53.046;5.668;2022-12-18T04:38:09;50.52;49.21;42.66;32.69;262.37;262.09;260.35;251.53;210.48;0.76
67098;SPS30;54288;53.046;5.668;2022-12-18T04:40:36;49.28;48.01;41.64;31.94;256.34;256.07;254.37;245.80;205.74;0.76
67098;SPS30;54288;53.046;5.668;2022-12-18T04:43:09;51.90;50.44;43.19;32.36;259.93;259.63;257.71;248.02;206.28;0.77
67098;SPS30;54288;53.046;5.668;2022-12-18T04:45:35;49.46;48.26;42.23;32.90;263.96;263.70;262.09;253.93;213.42;0.73
67098;SPS30;54288;53.046;5.668;2022-12-18T04:48:01;49.53;48.26;41.91;32.22;258.63;258.36;256.67;248.12;207.82;0.75
67098;SPS30;54288;53.046;5.668;2022-12-18T04:50:28;51.40;50.10;43.60;33.64;269.95;269.68;267.94;259.17;217.27;0.76
67098;SPS30;54288;53.046;5.668;2022-12-18T04:52:54;49.90;48.63;42.30;32.60;261.64;261.38;259.69;251.15;210.49;0.76
67098;SPS30;54288;53.046;5.668;2022-12-18T04:55:21;50.94;49.61;42.97;32.88;263.90;263.62;261.85;252.92;211.57;0.77
67098;SPS30;54288;53.046;5.668;2022-12-18T04:57:49;50.75;49.47;43.07;33.24;266.77;266.50;264.78;256.14;214.76;0.74
67098;SPS30;54288;53.046;5.668;2022-12-18T05:00:15;49.32;48.13;42.19;32.96;264.40;264.15;262.56;254.50;214.06;0.74
67098;SPS30;54288;53.046;5.668;2022-12-18T05:02:41;49.71;48.47;42.26;32.71;262.48;262.22;260.56;252.17;211.59;0.76
67098;SPS30;54288;53.046;5.668;2022-12-18T05:05:07;47.02;46.00;40.87;32.66;261.88;261.66;260.27;253.24;214.23;0.73
67098;SPS30;54288;53.046;5.668;2022-12-18T05:07:33;46.49;45.51;40.60;32.66;261.84;261.62;260.29;253.53;214.83;0.72
67098;SPS30;54288;53.046;5.668;2022-12-18T05:09:58;49.55;48.33;42.28;32.90;264.00;263.74;262.12;253.92;213.36;0.74
67098;SPS30;54288;53.046;5.668;2022-12-18T05:12:24;48.72;47.55;41.68;32.57;261.29;261.04;259.47;251.52;211.56;0.76
67098;SPS30;54288;53.046;5.668;2022-12-18T05:14:49;47.18;46.13;40.89;32.54;260.90;260.67;259.25;252.07;213.02;0.72
67098;SPS30;54288;53.046;5.668;2022-12-18T05:17:15;50.46;49.17;42.70;32.82;263.38;263.11;261.38;252.66;211.60;0.76
67098;SPS30;54288;53.046;5.668;2022-12-18T05:19:41;48.05;46.94;41.41;32.69;262.17;261.93;260.44;252.89;213.28;0.74
67098;SPS30;54288;53.046;5.668;2022-12-18T05:22:06;47.78;46.65;41.04;32.25;258.66;258.42;256.91;249.27;209.98;0.74
67098;SPS30;54288;53.046;5.668;2022-12-18T05:24:32;44.37;43.42;38.69;31.06;248.99;248.78;247.50;240.99;204.10;0.73
67098;SPS30;54288;53.046;5.668;2022-12-18T05:26:58;43.67;42.81;38.50;31.38;251.49;251.30;250.12;244.14;207.55;0.72
67098;SPS30;54288;53.046;5.668;2022-12-18T05:29:24;44.24;43.35;38.87;31.52;252.63;252.43;251.20;245.00;208.02;0.72
67098;SPS30;54288;53.046;5.668;2022-12-18T05:31:49;43.68;42.83;38.55;31.46;252.12;251.93;250.76;244.81;208.18;0.72
67098;SPS30;54288;53.046;5.668;2022-12-18T05:34:15;44.97;44.02;39.30;31.64;253.65;253.44;252.15;245.64;208.20;0.72
67098;SPS30;54288;53.046;5.668;2022-12-18T05:36:40;43.22;42.36;38.06;30.95;248.07;247.88;246.70;240.72;204.54;0.71
67098;SPS30;54288;53.046;5.668;2022-12-18T05:39:06;43.13;42.28;38.06;31.06;248.93;248.74;247.58;241.71;205.54;0.71
67098;SPS30;54288;53.046;5.668;2022-12-18T05:41:32;41.02;40.28;36.58;30.28;242.53;242.36;241.34;236.14;201.48;0.69
67098;SPS30;54288;53.046;5.668;2022-12-18T05:43:58;41.93;41.18;37.44;31.04;248.67;248.50;247.46;242.20;206.74;0.70
67098;SPS30;54288;53.046;5.668;2022-12-18T05:46:24;42.26;41.43;37.27;30.39;243.53;243.34;242.20;236.42;201.00;0.72
67098;SPS30;54288;53.046;5.668;2022-12-18T05:48:50;42.33;41.50;37.39;30.54;244.75;244.56;243.43;237.70;202.19;0.71
67098;SPS30;54288;53.046;5.668;2022-12-18T05:51:16;40.56;39.86;36.36;30.29;242.60;242.43;241.46;236.50;202.11;0.70
67098;SPS30;54288;53.046;5.668;2022-12-18T05:53:44;40.63;39.92;36.40;30.30;242.72;242.55;241.57;236.58;202.15;0.69
67098;SPS30;54288;53.046;5.668;2022-12-18T05:56:12;40.90;40.18;36.60;30.43;243.74;243.58;242.58;237.53;202.89;0.71
67098;SPS30;54288;53.046;5.668;2022-12-18T05:58:40;40.38;39.64;35.95;29.68;237.77;237.60;236.58;231.40;197.32;0.70
67098;SPS30;54288;53.046;5.668;2022-12-18T06:01:11;41.69;40.89;36.90;30.24;242.29;242.11;241.01;235.45;200.42;0.71
67098;SPS30;54288;53.046;5.668;2022-12-18T06:03:42;42.37;41.54;37.41;30.54;244.76;244.58;243.44;237.69;202.15;0.72
67098;SPS30;54288;53.046;5.668;2022-12-18T06:06:21;40.94;40.19;36.45;30.09;241.04;240.86;239.83;234.57;200.03;0.70
67098;SPS30;54288;53.046;5.668;2022-12-18T06:08:49;39.40;38.76;35.53;29.82;238.81;238.66;237.75;233.15;199.59;0.69
67098;SPS30;54288;53.046;5.668;2022-12-18T06:11:17;40.74;39.99;36.22;29.85;239.17;239.00;237.96;232.68;198.34;0.72
67098;SPS30;54288;53.046;5.668;2022-12-18T06:13:45;40.15;39.45;35.94;29.89;239.41;239.25;238.27;233.32;199.31;0.70
67098;SPS30;54288;53.046;5.668;2022-12-18T06:16:12;39.97;39.26;35.71;29.63;237.32;237.15;236.17;231.17;197.36;0.70
67098;SPS30;54288;53.046;5.668;2022-12-18T06:18:38;39.62;38.98;35.79;30.11;241.13;240.98;240.08;235.51;201.72;0.68
67098;SPS30;54288;53.046;5.668;2022-12-18T06:21:03;40.18;39.45;35.83;29.66;237.56;237.39;236.39;231.29;197.35;0.71
67098;SPS30;54288;53.046;5.668;2022-12-18T06:23:29;39.51;38.86;35.62;29.91;239.47;239.31;238.41;233.79;200.14;0.69
67098;SPS30;54288;53.046;5.668;2022-12-18T06:25:55;40.17;39.45;35.86;29.70;237.93;237.77;236.77;231.70;197.74;0.71
67098;SPS30;54288;53.046;5.668;2022-12-18T06:28:20;41.90;41.06;36.87;29.98;240.28;240.09;238.95;233.14;198.08;0.71
67098;SPS30;54288;53.046;5.668;2022-12-18T06:30:46;39.32;38.67;35.41;29.67;237.61;237.45;236.54;231.89;198.44;0.69
67098;SPS30;54288;53.046;5.668;2022-12-18T06:33:13;38.54;37.98;35.17;29.99;240.04;239.90;239.10;235.02;201.92;0.67
67098;SPS30;54288;53.046;5.668;2022-12-18T06:35:40;37.32;36.82;34.32;29.54;236.40;236.27;235.55;231.86;199.63;0.67
67098;SPS30;54288;53.046;5.668;2022-12-18T06:38:06;39.74;39.04;35.54;29.51;236.41;236.24;235.27;230.33;196.69;0.70
67098;SPS30;54288;53.046;5.668;2022-12-18T06:40:32;38.92;38.26;34.97;29.22;234.00;233.84;232.92;228.24;195.19;0.69
67098;SPS30;54288;53.046;5.668;2022-12-18T06:42:58;40.92;40.16;36.36;29.94;239.88;239.71;238.66;233.33;198.85;0.72
67098;SPS30;54288;53.046;5.668;2022-12-18T06:45:24;39.91;39.22;35.75;29.76;238.36;238.20;237.23;232.33;198.50;0.70
67098;SPS30;54288;53.046;5.668;2022-12-18T06:47:50;39.25;38.59;35.31;29.56;236.75;236.59;235.68;231.01;197.64;0.70
67098;SPS30;54288;53.046;5.668;2022-12-18T06:50:15;37.31;36.76;34.03;28.99;232.03;231.89;231.12;227.14;195.11;0.69
67098;SPS30;54288;53.046;5.668;2022-12-18T06:52:41;37.74;37.15;34.21;28.91;231.49;231.35;230.52;226.28;194.02;0.68
67098;SPS30;54288;53.046;5.668;2022-12-18T06:55:09;35.85;35.37;32.97;28.38;227.09;226.97;226.28;222.73;191.76;0.66
67098;SPS30;54288;53.046;5.668;2022-12-18T06:57:36;36.84;36.33;33.79;29.00;232.07;231.94;231.21;227.48;195.72;0.67
67098;SPS30;54288;53.046;5.668;2022-12-18T07:00:03;36.49;35.97;33.37;28.51;228.19;228.06;227.32;223.51;192.12;0.68
67098;SPS30;54288;53.046;5.668;2022-12-18T07:02:30;36.88;36.34;33.63;28.64;229.29;229.15;228.38;224.45;192.78;0.68
67098;SPS30;54288;53.046;5.668;2022-12-18T07:04:56;35.45;34.99;32.69;28.23;225.88;225.76;225.09;221.67;190.99;0.66
67098;SPS30;54288;53.046;5.668;2022-12-18T07:07:22;34.87;34.44;32.27;27.99;223.93;223.81;223.18;219.94;189.68;0.67
67098;SPS30;54288;53.046;5.668;2022-12-18T07:09:49;35.86;35.35;32.83;28.10;224.90;224.77;224.05;220.36;189.48;0.68
67098;SPS30;54288;53.046;5.668;2022-12-18T07:12:15;35.52;35.01;32.43;27.66;221.42;221.29;220.56;216.81;186.28;0.69
67098;SPS30;54288;53.046;5.668;2022-12-18T07:14:40;35.62;35.11;32.51;27.72;221.86;221.73;221.00;217.22;186.62;0.67
67098;SPS30;54288;53.046;5.668;2022-12-18T07:17:06;33.25;32.89;31.11;27.34;218.68;218.58;218.04;215.29;186.20;0.65
67098;SPS30;54288;53.046;5.668;2022-12-18T07:19:32;35.11;34.66;32.39;27.97;223.85;223.73;223.08;219.70;189.31;0.68
67098;SPS30;54288;53.046;5.668;2022-12-18T07:21:58;36.47;35.91;33.08;27.98;223.99;223.85;223.05;218.98;187.79;0.69
67098;SPS30;54288;53.046;5.668;2022-12-18T07:24:23;34.40;33.96;31.77;27.48;219.89;219.77;219.14;215.87;186.06;0.67
67098;SPS30;54288;53.046;5.668;2022-12-18T07:26:49;34.17;33.80;31.95;28.06;224.43;224.32;223.77;220.92;191.04;0.65
67098;SPS30;54288;53.046;5.668;2022-12-18T07:29:14;35.60;35.15;32.91;28.51;228.12;228.00;227.35;224.01;193.14;0.66
67098;SPS30;54288;53.046;5.668;2022-12-18T07:31:40;34.25;33.84;31.76;27.60;220.82;220.71;220.10;216.97;187.21;0.66
67098;SPS30;54288;53.046;5.668;2022-12-18T07:34:09;33.49;33.09;31.10;27.09;216.70;216.59;216.01;213.00;183.87;0.66
67098;SPS30;54288;53.046;5.668;2022-12-18T07:36:35;35.60;35.19;33.11;28.89;231.09;230.98;230.37;227.22;196.21;0.67
67098;SPS30;54288;53.046;5.668;2022-12-18T07:39:01;34.14;33.80;32.11;28.39;227.03;226.93;226.42;223.76;193.78;0.64
67098;SPS30;54288;53.046;5.668;2022-12-18T07:41:26;34.65;34.31;32.61;28.86;230.82;230.72;230.20;227.53;197.09;0.65
67098;SPS30;54288;53.046;5.668;2022-12-18T07:43:52;34.00;33.74;32.47;29.21;233.54;233.45;233.04;230.89;200.70;0.63
67098;SPS30;54288;53.046;5.668;2022-12-18T07:46:18;33.75;33.48;32.15;28.84;230.56;230.47;230.04;227.82;197.91;0.64
67098;SPS30;54288;53.046;5.668;2022-12-18T07:48:43;32.92;32.64;31.28;27.99;223.79;223.70;223.27;221.03;191.91;0.63
67098;SPS30;54288;53.046;5.668;2022-12-18T07:51:13;32.38;32.09;30.63;27.26;217.95;217.86;217.41;215.05;186.50;0.65
67098;SPS30;54288;53.046;5.668;2022-12-18T07:53:39;30.62;30.35;28.99;25.83;206.54;206.45;206.03;203.83;176.82;0.64
67098;SPS30;54288;53.046;5.668;2022-12-18T07:56:06;30.42;30.16;28.88;25.81;206.38;206.30;205.90;203.80;176.91;0.63
67098;SPS30;54288;53.046;5.668;2022-12-18T07:58:35;30.44;30.21;29.07;26.14;209.01;208.93;208.56;206.63;179.60;0.62
67098;SPS30;54288;53.046;5.668;2022-12-18T08:01:05;30.10;29.84;28.54;25.46;203.57;203.49;203.09;200.96;174.38;0.63
67098;SPS30;54288;53.046;5.668;2022-12-18T08:03:32;28.16;27.94;26.87;24.15;193.08;193.01;192.66;190.85;165.87;0.63
67098;SPS30;54288;53.046;5.668;2022-12-18T08:06:05;29.04;28.84;27.81;25.11;200.71;200.63;200.30;198.54;172.70;0.63
67098;SPS30;54288;53.046;5.668;2022-12-18T08:08:33;29.42;29.19;28.04;25.18;201.28;201.21;200.84;198.92;172.83;0.62
67098;SPS30;54288;53.046;5.668;2022-12-18T08:10:59;28.37;28.18;27.28;24.74;197.74;197.67;197.37;195.76;170.45;0.62
67098;SPS30;54288;53.046;5.668;2022-12-18T08:13:26;29.21;29.03;28.14;25.56;204.31;204.25;203.94;202.33;176.23;0.62
67098;SPS30;54288;53.046;5.668;2022-12-18T08:15:59;28.78;28.57;27.51;24.78;198.13;198.06;197.71;195.91;170.34;0.63
67098;SPS30;54288;53.046;5.668;2022-12-18T08:18:34;28.04;27.88;27.07;24.65;197.00;196.93;196.65;195.16;170.07;0.62
67098;SPS30;54288;53.046;5.668;2022-12-18T08:21:08;28.62;28.47;27.70;25.30;202.16;202.10;201.82;200.38;174.72;0.61
67098;SPS30;54288;53.046;5.668;2022-12-18T08:23:35;28.17;28.03;27.36;25.08;200.44;200.38;200.13;198.80;173.48;0.60
67098;SPS30;54288;53.046;5.668;2022-12-18T08:26:01;27.68;27.50;26.65;24.20;193.40;193.33;193.04;191.50;166.78;0.62
67098;SPS30;54288;53.046;5.668;2022-12-18T08:28:27;27.84;27.70;26.99;24.70;197.36;197.30;197.05;195.69;170.70;0.61
67098;SPS30;54288;53.046;5.668;2022-12-18T08:30:52;27.71;27.58;26.97;24.79;198.12;198.06;197.83;196.59;171.64;0.60
67098;SPS30;54288;53.046;5.668;2022-12-18T08:33:18;27.62;27.50;26.87;24.68;197.21;197.15;196.91;195.65;170.79;0.61
67098;SPS30;54288;53.046;5.668;2022-12-18T08:35:44;27.33;27.24;26.78;24.79;198.02;197.97;197.78;196.73;172.00;0.60
67098;SPS30;54288;53.046;5.668;2022-12-18T08:38:09;27.82;27.66;26.83;24.40;195.02;194.95;194.67;193.16;168.28;0.62
67098;SPS30;54288;53.046;5.668;2022-12-18T08:40:35;27.05;26.91;26.23;23.99;191.75;191.69;191.44;190.12;165.83;0.60
67098;SPS30;54288;53.046;5.668;2022-12-18T08:43:00;26.42;26.30;25.73;23.67;189.13;189.08;188.86;187.69;163.89;0.61
67098;SPS30;54288;53.046;5.668;2022-12-18T08:45:45;25.57;25.48;25.02;23.12;184.75;184.70;184.51;183.49;160.37;0.59
67098;SPS30;54288;53.046;5.668;2022-12-18T08:48:10;25.83;25.73;25.23;23.27;185.94;185.89;185.69;184.62;161.30;0.60
67098;SPS30;54288;53.046;5.668;2022-12-18T08:50:36;25.62;25.50;24.90;22.85;182.57;182.52;182.30;181.11;158.06;0.62